sensor_id;sensor_type;location;lat;lon;timestamp;pressure;altitude;pressure_sealevel;temperature;humidity
64340;BME280;63709;53.258;-8.814;2023-09-12T00:00:02;101772.53;;;16.83;100.00
64340;BME280;63709;53.258;-8.814;2023-09-12T00:02:30;101780.63;;;16.83;100.00
64340;BME280;63709;53.258;-8.814;2023-09-12T00:04:55;101771.84;;;16.81;100.00
64340;BME280;63709;53.258;-8.814;2023-09-12T00:07:21;101773.19;;;16.75;100.00
64340;BME280;63709;53.258;-8.814;2023-09-12T00:09:46;101773.19;;;16.75;100.00
64340;BME280;63709;53.258;-8.814;2023-09-12T00:12:14;101770.88;;;16.70;100.00
64340;BME280;63709;53.258;-8.814;2023-09-12T00:14:39;101770.44;;;16.65;100.00
64340;BME280;63709;53.258;-8.814;2023-09-12T00:17:04;101768.50;;;16.56;100.00
64340;BME280;63709;53.258;-8.814;2023-09-12T00:19:30;101780.06;;;16.47;100.00
64340;BME280;63709;53.258;-8.814;2023-09-12T00:21:55;101778.88;;;16.40;100.00
64340;BME280;63709;53.258;-8.814;2023-09-12T00:24:20;101784.38;;;16.38;100.00
64340;BME280;63709;53.258;-8.814;2023-09-12T00:26:46;101787.22;;;16.37;100.00
64340;BME280;63709;53.258;-8.814;2023-09-12T00:29:11;101790.81;;;16.26;100.00
64340;BME280;63709;53.258;-8.814;2023-09-12T00:31:36;101793.50;;;16.26;100.00
64340;BME280;63709;53.258;-8.814;2023-09-12T00:34:02;101795.50;;;16.24;100.00
64340;BME280;63709;53.258;-8.814;2023-09-12T00:36:27;101797.81;;;16.17;100.00
64340;BME280;63709;53.258;-8.814;2023-09-12T00:38:52;101795.88;;;16.08;100.00
64340;BME280;63709;53.258;-8.814;2023-09-12T00:41:17;101794.31;;;16.06;100.00
64340;BME280;63709;53.258;-8.814;2023-09-12T00:43:43;101794.56;;;16.03;100.00
64340;BME280;63709;53.258;-8.814;2023-09-12T00:46:08;101794.69;;;15.90;100.00
64340;BME280;63709;53.258;-8.814;2023-09-12T00:48:33;101796.44;;;15.91;100.00
64340;BME280;63709;53.258;-8.814;2023-09-12T00:50:59;101794.59;;;15.91;100.00
64340;BME280;63709;53.258;-8.814;2023-09-12T00:53:25;101794.69;;;15.90;100.00
64340;BME280;63709;53.258;-8.814;2023-09-12T00:55:51;101799.47;;;15.86;100.00
64340;BME280;63709;53.258;-8.814;2023-09-12T00:58:19;101795.34;;;15.82;100.00
64340;BME280;63709;53.258;-8.814;2023-09-12T01:00:44;101798.16;;;15.81;100.00
64340;BME280;63709;53.258;-8.814;2023-09-12T01:03:10;101797.91;;;15.84;100.00
64340;BME280;63709;53.258;-8.814;2023-09-12T01:05:35;101798.03;;;15.82;100.00
64340;BME280;63709;53.258;-8.814;2023-09-12T01:08:01;101797.41;;;15.90;100.00
64340;BME280;63709;53.258;-8.814;2023-09-12T01:10:26;101799.38;;;15.88;100.00
64340;BME280;63709;53.258;-8.814;2023-09-12T01:12:52;101800.09;;;15.79;100.00
64340;BME280;63709;53.258;-8.814;2023-09-12T01:15:17;101796.81;;;15.75;100.00
64340;BME280;63709;53.258;-8.814;2023-09-12T01:17:43;101797.19;;;15.70;100.00
64340;BME280;63709;53.258;-8.814;2023-09-12T01:20:14;101796.09;;;15.73;100.00
64340;BME280;63709;53.258;-8.814;2023-09-12T01:27:51;101799.28;;;15.67;100.00
64340;BME280;63709;53.258;-8.814;2023-09-12T01:30:18;101814.78;;;15.63;100.00
64340;BME280;63709;53.258;-8.814;2023-09-12T01:32:43;101816.84;;;15.60;100.00
64340;BME280;63709;53.258;-8.814;2023-09-12T01:35:08;101820.06;;;15.54;100.00
64340;BME280;63709;53.258;-8.814;2023-09-12T01:37:34;101817.25;;;15.55;100.00
64340;BME280;63709;53.258;-8.814;2023-09-12T01:40:01;101818.56;;;15.49;100.00
64340;BME280;63709;53.258;-8.814;2023-09-12T01:42:29;101819.69;;;15.47;100.00
64340;BME280;63709;53.258;-8.814;2023-09-12T01:44:55;101823.47;;;15.33;100.00
64340;BME280;63709;53.258;-8.814;2023-09-12T01:47:21;101818.56;;;15.16;100.00
64340;BME280;63709;53.258;-8.814;2023-09-12T01:49:48;101823.31;;;15.12;100.00
64340;BME280;63709;53.258;-8.814;2023-09-12T01:52:14;101824.66;;;15.07;100.00
64340;BME280;63709;53.258;-8.814;2023-09-12T01:54:40;101831.59;;;14.98;100.00
64340;BME280;63709;53.258;-8.814;2023-09-12T01:57:06;101822.19;;;14.92;100.00
64340;BME280;63709;53.258;-8.814;2023-09-12T01:59:33;101813.25;;;14.92;100.00
64340;BME280;63709;53.258;-8.814;2023-09-12T02:01:58;101821.31;;;14.81;100.00
64340;BME280;63709;53.258;-8.814;2023-09-12T02:04:23;101822.97;;;14.70;100.00
64340;BME280;63709;53.258;-8.814;2023-09-12T02:06:49;101811.97;;;14.62;100.00
64340;BME280;63709;53.258;-8.814;2023-09-12T02:09:14;101823.50;;;14.51;100.00
64340;BME280;63709;53.258;-8.814;2023-09-12T02:11:39;101829.88;;;14.50;100.00
64340;BME280;63709;53.258;-8.814;2023-09-12T02:14:04;101828.69;;;14.42;100.00
64340;BME280;63709;53.258;-8.814;2023-09-12T02:16:31;101836.41;;;14.46;100.00
64340;BME280;63709;53.258;-8.814;2023-09-12T02:18:56;101834.41;;;14.37;100.00
64340;BME280;63709;53.258;-8.814;2023-09-12T02:21:21;101829.03;;;14.50;100.00
64340;BME280;63709;53.258;-8.814;2023-09-12T02:23:47;101832.13;;;14.44;100.00
64340;BME280;63709;53.258;-8.814;2023-09-12T02:26:12;101835.03;;;14.41;100.00
64340;BME280;63709;53.258;-8.814;2023-09-12T02:28:37;101831.63;;;14.39;100.00
64340;BME280;63709;53.258;-8.814;2023-09-12T02:31:02;101832.56;;;14.38;100.00
64340;BME280;63709;53.258;-8.814;2023-09-12T02:33:28;101829.47;;;14.31;100.00
64340;BME280;63709;53.258;-8.814;2023-09-12T02:35:53;101837.44;;;14.33;100.00
64340;BME280;63709;53.258;-8.814;2023-09-12T02:38:18;101834.56;;;14.23;100.00
64340;BME280;63709;53.258;-8.814;2023-09-12T02:40:43;101839.84;;;14.24;100.00
64340;BME280;63709;53.258;-8.814;2023-09-12T02:43:09;101842.28;;;14.27;100.00
64340;BME280;63709;53.258;-8.814;2023-09-12T02:45:34;101846.56;;;14.30;100.00
64340;BME280;63709;53.258;-8.814;2023-09-12T02:47:59;101843.88;;;14.30;100.00
64340;BME280;63709;53.258;-8.814;2023-09-12T02:50:24;101845.59;;;14.31;100.00
64340;BME280;63709;53.258;-8.814;2023-09-12T02:52:50;101851.09;;;14.29;100.00
64340;BME280;63709;53.258;-8.814;2023-09-12T02:55:15;101845.50;;;14.33;100.00
64340;BME280;63709;53.258;-8.814;2023-09-12T02:57:40;101845.72;;;14.29;100.00
64340;BME280;63709;53.258;-8.814;2023-09-12T03:00:06;101849.91;;;14.34;100.00
64340;BME280;63709;53.258;-8.814;2023-09-12T03:02:33;101852.06;;;14.28;100.00
64340;BME280;63709;53.258;-8.814;2023-09-12T03:04:58;101850.06;;;14.19;100.00
64340;BME280;63709;53.258;-8.814;2023-09-12T03:07:24;101853.59;;;14.20;100.00
64340;BME280;63709;53.258;-8.814;2023-09-12T03:09:49;101851.38;;;14.14;100.00
64340;BME280;63709;53.258;-8.814;2023-09-12T03:12:15;101855.66;;;14.16;100.00
64340;BME280;63709;53.258;-8.814;2023-09-12T03:14:40;101847.50;;;14.18;100.00
64340;BME280;63709;53.258;-8.814;2023-09-12T03:17:05;101846.09;;;14.12;100.00
64340;BME280;63709;53.258;-8.814;2023-09-12T03:19:31;101850.00;;;14.08;100.00
64340;BME280;63709;53.258;-8.814;2023-09-12T03:21:56;101852.56;;;14.10;100.00
64340;BME280;63709;53.258;-8.814;2023-09-12T03:24:21;101854.28;;;14.11;100.00
64340;BME280;63709;53.258;-8.814;2023-09-12T03:26:49;101856.13;;;13.97;100.00
64340;BME280;63709;53.258;-8.814;2023-09-12T03:29:15;101855.28;;;13.97;100.00
64340;BME280;63709;53.258;-8.814;2023-09-12T03:31:40;101847.78;;;14.02;100.00
64340;BME280;63709;53.258;-8.814;2023-09-12T03:34:05;101856.25;;;13.96;100.00
64340;BME280;63709;53.258;-8.814;2023-09-12T03:36:31;101857.78;;;13.87;100.00
64340;BME280;63709;53.258;-8.814;2023-09-12T03:38:56;101863.81;;;13.91;100.00
64340;BME280;63709;53.258;-8.814;2023-09-12T03:41:21;101856.19;;;13.85;100.00
64340;BME280;63709;53.258;-8.814;2023-09-12T03:43:53;101859.75;;;13.72;100.00
64340;BME280;63709;53.258;-8.814;2023-09-12T03:46:19;101852.44;;;13.74;100.00
64340;BME280;63709;53.258;-8.814;2023-09-12T03:48:44;101852.66;;;13.71;100.00
64340;BME280;63709;53.258;-8.814;2023-09-12T03:51:11;101854.81;;;13.66;100.00
64340;BME280;63709;53.258;-8.814;2023-09-12T03:53:36;101852.34;;;13.63;100.00
64340;BME280;63709;53.258;-8.814;2023-09-12T03:56:01;101854.94;;;13.52;100.00
64340;BME280;63709;53.258;-8.814;2023-09-12T03:58:27;101864.94;;;13.50;100.00
64340;BME280;63709;53.258;-8.814;2023-09-12T04:00:52;101860.72;;;13.46;100.00
64340;BME280;63709;53.258;-8.814;2023-09-12T04:03:17;101862.88;;;13.41;100.00
64340;BME280;63709;53.258;-8.814;2023-09-12T04:05:43;101862.44;;;13.34;100.00
64340;BME280;63709;53.258;-8.814;2023-09-12T04:08:08;101855.91;;;13.38;100.00
64340;BME280;63709;53.258;-8.814;2023-09-12T04:10:33;101861.81;;;13.43;100.00
64340;BME280;63709;53.258;-8.814;2023-09-12T04:12:58;101866.75;;;13.37;100.00
64340;BME280;63709;53.258;-8.814;2023-09-12T04:15:24;101866.53;;;13.40;100.00
64340;BME280;63709;53.258;-8.814;2023-09-12T04:17:49;101864.59;;;13.42;100.00
64340;BME280;63709;53.258;-8.814;2023-09-12T04:20:14;101866.53;;;13.40;100.00
64340;BME280;63709;53.258;-8.814;2023-09-12T04:22:42;101866.97;;;13.34;100.00
64340;BME280;63709;53.258;-8.814;2023-09-12T04:25:07;101873.94;;;13.36;100.00
64340;BME280;63709;53.258;-8.814;2023-09-12T04:27:32;101866.63;;;13.38;100.00
64340;BME280;63709;53.258;-8.814;2023-09-12T04:29:59;101872.78;;;13.27;100.00
64340;BME280;63709;53.258;-8.814;2023-09-12T04:32:24;101870.19;;;13.26;100.00
64340;BME280;63709;53.258;-8.814;2023-09-12T04:34:50;101885.28;;;13.27;100.00
64340;BME280;63709;53.258;-8.814;2023-09-12T04:37:15;101882.31;;;13.31;100.00
64340;BME280;63709;53.258;-8.814;2023-09-12T04:39:40;101879.75;;;13.43;100.00
64340;BME280;63709;53.258;-8.814;2023-09-12T04:42:06;101891.09;;;13.34;100.00
64340;BME280;63709;53.258;-8.814;2023-09-12T04:44:34;101889.47;;;13.31;100.00
64340;BME280;63709;53.258;-8.814;2023-09-12T04:46:59;101891.94;;;13.34;100.00
64340;BME280;63709;53.258;-8.814;2023-09-12T04:49:25;101895.19;;;13.39;100.00
64340;BME280;63709;53.258;-8.814;2023-09-12T04:51:50;101897.88;;;13.39;100.00
64340;BME280;63709;53.258;-8.814;2023-09-12T04:54:15;101901.66;;;13.22;100.00
64340;BME280;63709;53.258;-8.814;2023-09-12T04:56:41;101899.97;;;13.21;100.00
64340;BME280;63709;53.258;-8.814;2023-09-12T04:59:06;101895.88;;;13.16;100.00
64340;BME280;63709;53.258;-8.814;2023-09-12T05:01:32;101892.88;;;13.20;100.00
64340;BME280;63709;53.258;-8.814;2023-09-12T05:03:57;101904.44;;;13.08;100.00
64340;BME280;63709;53.258;-8.814;2023-09-12T05:06:22;101909.38;;;13.14;100.00
64340;BME280;63709;53.258;-8.814;2023-09-12T05:08:47;101909.13;;;13.04;100.00
64340;BME280;63709;53.258;-8.814;2023-09-12T05:11:13;101916.97;;;13.07;100.00
64340;BME280;63709;53.258;-8.814;2023-09-12T05:13:38;101921.28;;;13.10;100.00
64340;BME280;63709;53.258;-8.814;2023-09-12T05:16:03;101923.75;;;13.13;100.00
64340;BME280;63709;53.258;-8.814;2023-09-12T05:18:29;101924.94;;;13.09;100.00
64340;BME280;63709;53.258;-8.814;2023-09-12T05:20:54;101922.66;;;13.16;100.00
64340;BME280;63709;53.258;-8.814;2023-09-12T05:23:19;101927.19;;;13.15;100.00
64340;BME280;63709;53.258;-8.814;2023-09-12T05:25:45;101940.13;;;13.08;100.00
64340;BME280;63709;53.258;-8.814;2023-09-12T05:28:10;101932.22;;;13.07;100.00
64340;BME280;63709;53.258;-8.814;2023-09-12T05:30:35;101925.13;;;13.06;100.00
64340;BME280;63709;53.258;-8.814;2023-09-12T05:33:01;101935.94;;;13.04;100.00
64340;BME280;63709;53.258;-8.814;2023-09-12T05:35:26;101941.97;;;13.08;100.00
64340;BME280;63709;53.258;-8.814;2023-09-12T05:37:52;101937.25;;;13.12;100.00
64340;BME280;63709;53.258;-8.814;2023-09-12T05:40:17;101938.09;;;13.12;100.00
64340;BME280;63709;53.258;-8.814;2023-09-12T05:42:43;101941.88;;;13.10;100.00
64340;BME280;63709;53.258;-8.814;2023-09-12T05:45:08;101950.97;;;13.07;100.00
64340;BME280;63709;53.258;-8.814;2023-09-12T05:47:33;101942.94;;;13.07;100.00
64340;BME280;63709;53.258;-8.814;2023-09-12T05:49:59;101948.94;;;12.98;100.00
64340;BME280;63709;53.258;-8.814;2023-09-12T05:52:25;101949.00;;;12.96;100.00
64340;BME280;63709;53.258;-8.814;2023-09-12T05:54:51;101957.03;;;12.96;100.00
64340;BME280;63709;53.258;-8.814;2023-09-12T05:57:16;101958.06;;;12.81;100.00
64340;BME280;63709;53.258;-8.814;2023-09-12T05:59:41;101942.38;;;12.75;100.00
64340;BME280;63709;53.258;-8.814;2023-09-12T06:02:07;101959.13;;;12.78;100.00
64340;BME280;63709;53.258;-8.814;2023-09-12T06:04:34;101965.34;;;12.79;100.00
64340;BME280;63709;53.258;-8.814;2023-09-12T06:07:01;101970.31;;;12.85;100.00
64340;BME280;63709;53.258;-8.814;2023-09-12T06:09:26;101970.31;;;12.85;100.00
64340;BME280;63709;53.258;-8.814;2023-09-12T06:11:51;101963.22;;;12.84;100.00
64340;BME280;63709;53.258;-8.814;2023-09-12T06:14:17;101965.09;;;12.96;100.00
64340;BME280;63709;53.258;-8.814;2023-09-12T06:16:42;101971.06;;;12.87;100.00
64340;BME280;63709;53.258;-8.814;2023-09-12T06:19:07;101969.66;;;12.81;100.00
64340;BME280;63709;53.258;-8.814;2023-09-12T06:21:33;101973.28;;;12.80;100.00
64340;BME280;63709;53.258;-8.814;2023-09-12T06:24:11;101975.13;;;12.80;100.00
64340;BME280;63709;53.258;-8.814;2023-09-12T06:26:37;101977.88;;;12.78;100.00
64340;BME280;63709;53.258;-8.814;2023-09-12T06:29:02;101976.84;;;12.81;100.00
64340;BME280;63709;53.258;-8.814;2023-09-12T06:31:28;101975.53;;;12.87;100.00
64340;BME280;63709;53.258;-8.814;2023-09-12T06:33:53;101977.94;;;12.91;100.00
64340;BME280;63709;53.258;-8.814;2023-09-12T06:36:19;101975.72;;;12.98;100.00
64340;BME280;63709;53.258;-8.814;2023-09-12T06:38:44;101980.13;;;12.99;100.00
64340;BME280;63709;53.258;-8.814;2023-09-12T06:41:09;101989.66;;;13.03;100.00
64340;BME280;63709;53.258;-8.814;2023-09-12T06:43:34;101982.94;;;13.10;100.00
64340;BME280;63709;53.258;-8.814;2023-09-12T06:46:00;101998.06;;;13.11;100.00
64340;BME280;63709;53.258;-8.814;2023-09-12T06:48:25;101998.16;;;13.10;100.00
64340;BME280;63709;53.258;-8.814;2023-09-12T06:50:50;102001.75;;;12.96;100.00
64340;BME280;63709;53.258;-8.814;2023-09-12T06:53:15;102010.41;;;13.14;100.00
64340;BME280;63709;53.258;-8.814;2023-09-12T06:55:41;102011.25;;;13.14;100.00
64340;BME280;63709;53.258;-8.814;2023-09-12T06:58:06;102019.00;;;13.19;100.00
64340;BME280;63709;53.258;-8.814;2023-09-12T07:00:32;102025.84;;;13.23;100.00
64340;BME280;63709;53.258;-8.814;2023-09-12T07:02:58;102014.13;;;13.25;100.00
64340;BME280;63709;53.258;-8.814;2023-09-12T07:05:23;102016.53;;;13.43;100.00
64340;BME280;63709;53.258;-8.814;2023-09-12T07:07:48;102021.78;;;13.44;100.00
64340;BME280;63709;53.258;-8.814;2023-09-12T07:10:14;102024.78;;;13.40;100.00
64340;BME280;63709;53.258;-8.814;2023-09-12T07:12:39;102033.50;;;13.56;100.00
64340;BME280;63709;53.258;-8.814;2023-09-12T07:15:04;102032.50;;;13.57;100.00
64340;BME280;63709;53.258;-8.814;2023-09-12T07:17:30;102033.63;;;13.67;100.00
64340;BME280;63709;53.258;-8.814;2023-09-12T07:19:55;102036.09;;;13.70;100.00
64340;BME280;63709;53.258;-8.814;2023-09-12T07:22:21;102040.50;;;13.84;100.00
64340;BME280;63709;53.258;-8.814;2023-09-12T07:24:46;102043.63;;;13.91;100.00
64340;BME280;63709;53.258;-8.814;2023-09-12T07:27:11;102040.81;;;14.05;100.00
64340;BME280;63709;53.258;-8.814;2023-09-12T07:29:37;102044.06;;;14.10;100.00
64340;BME280;63709;53.258;-8.814;2023-09-12T07:32:02;102051.66;;;14.16;100.00
64340;BME280;63709;53.258;-8.814;2023-09-12T07:34:28;102056.06;;;14.30;100.00
64340;BME280;63709;53.258;-8.814;2023-09-12T07:36:53;102049.41;;;14.36;100.00
64340;BME280;63709;53.258;-8.814;2023-09-12T07:39:19;102047.03;;;14.44;100.00
64340;BME280;63709;53.258;-8.814;2023-09-12T07:41:44;102054.88;;;14.60;100.00
64340;BME280;63709;53.258;-8.814;2023-09-12T07:44:10;102059.47;;;14.70;100.00
64340;BME280;63709;53.258;-8.814;2023-09-12T07:46:37;102056.66;;;14.85;100.00
64340;BME280;63709;53.258;-8.814;2023-09-12T07:49:02;102053.06;;;14.97;100.00
64340;BME280;63709;53.258;-8.814;2023-09-12T07:51:27;102061.31;;;15.07;100.00
64340;BME280;63709;53.258;-8.814;2023-09-12T07:53:53;102064.69;;;15.21;100.00
64340;BME280;63709;53.258;-8.814;2023-09-12T07:56:18;102057.31;;;15.36;100.00
64340;BME280;63709;53.258;-8.814;2023-09-12T07:58:43;102064.56;;;15.47;100.00
64340;BME280;63709;53.258;-8.814;2023-09-12T08:01:09;102071.47;;;15.62;100.00
64340;BME280;63709;53.258;-8.814;2023-09-12T08:03:35;102060.88;;;15.72;100.00
64340;BME280;63709;53.258;-8.814;2023-09-12T08:06:01;102070.34;;;15.89;100.00
64340;BME280;63709;53.258;-8.814;2023-09-12T08:08:26;102072.59;;;16.06;100.00
64340;BME280;63709;53.258;-8.814;2023-09-12T08:10:52;102072.00;;;16.25;100.00
64340;BME280;63709;53.258;-8.814;2023-09-12T08:13:17;102067.63;;;16.35;100.00
64340;BME280;63709;53.258;-8.814;2023-09-12T08:15:42;102072.25;;;16.44;100.00
64340;BME280;63709;53.258;-8.814;2023-09-12T08:18:07;102069.19;;;16.49;100.00
64340;BME280;63709;53.258;-8.814;2023-09-12T08:20:33;102067.34;;;16.50;100.00
64340;BME280;63709;53.258;-8.814;2023-09-12T08:22:58;102074.19;;;16.42;100.00
64340;BME280;63709;53.258;-8.814;2023-09-12T08:25:23;102076.03;;;16.53;100.00
64340;BME280;63709;53.258;-8.814;2023-09-12T08:27:49;102062.56;;;16.64;100.00
64340;BME280;63709;53.258;-8.814;2023-09-12T08:30:15;102064.28;;;16.65;100.00
64340;BME280;63709;53.258;-8.814;2023-09-12T08:32:41;102071.88;;;16.83;100.00
64340;BME280;63709;53.258;-8.814;2023-09-12T08:35:09;102073.34;;;16.87;100.00
64340;BME280;63709;53.258;-8.814;2023-09-12T08:37:35;102073.94;;;16.90;100.00
64340;BME280;63709;53.258;-8.814;2023-09-12T08:40:00;102072.63;;;16.85;100.00
64340;BME280;63709;53.258;-8.814;2023-09-12T08:42:26;102076.78;;;16.89;100.00
64340;BME280;63709;53.258;-8.814;2023-09-12T08:44:52;102077.75;;;16.99;100.00
64340;BME280;63709;53.258;-8.814;2023-09-12T08:47:19;102078.34;;;17.03;100.00
64340;BME280;63709;53.258;-8.814;2023-09-12T08:49:45;102075.69;;;16.91;100.00
64340;BME280;63709;53.258;-8.814;2023-09-12T08:52:10;102079.75;;;16.75;100.00
64340;BME280;63709;53.258;-8.814;2023-09-12T08:54:36;102077.41;;;16.92;100.00
64340;BME280;63709;53.258;-8.814;2023-09-12T08:57:01;102079.34;;;16.90;100.00
64340;BME280;63709;53.258;-8.814;2023-09-12T08:59:29;102073.59;;;16.95;100.00
64340;BME280;63709;53.258;-8.814;2023-09-12T09:01:56;102077.56;;;16.80;100.00
64340;BME280;63709;53.258;-8.814;2023-09-12T09:04:23;102076.78;;;16.89;100.00
64340;BME280;63709;53.258;-8.814;2023-09-12T09:06:48;102082.16;;;17.00;100.00
64340;BME280;63709;53.258;-8.814;2023-09-12T09:09:14;102092.44;;;17.06;100.00
64340;BME280;63709;53.258;-8.814;2023-09-12T09:11:41;102084.28;;;17.29;100.00
64340;BME280;63709;53.258;-8.814;2023-09-12T09:14:06;102083.81;;;17.24;100.00
64340;BME280;63709;53.258;-8.814;2023-09-12T09:16:31;102098.09;;;17.47;100.00
64340;BME280;63709;53.258;-8.814;2023-09-12T09:21:29;102087.38;;;17.56;100.00
64340;BME280;63709;53.258;-8.814;2023-09-12T09:23:57;102087.56;;;17.64;100.00
64340;BME280;63709;53.258;-8.814;2023-09-12T09:26:22;102099.84;;;17.80;100.00
64340;BME280;63709;53.258;-8.814;2023-09-12T09:29:02;102097.59;;;17.85;100.00
64340;BME280;63709;53.258;-8.814;2023-09-12T09:31:28;102101.16;;;17.74;100.00
64340;BME280;63709;53.258;-8.814;2023-09-12T09:33:53;102101.16;;;17.74;100.00
64340;BME280;63709;53.258;-8.814;2023-09-12T09:36:19;102107.28;;;17.87;100.00
64340;BME280;63709;53.258;-8.814;2023-09-12T09:38:45;102106.41;;;17.87;100.00
64340;BME280;63709;53.258;-8.814;2023-09-12T09:41:11;102112.47;;;18.00;100.00
64340;BME280;63709;53.258;-8.814;2023-09-12T09:43:36;102105.38;;;17.99;100.00
64340;BME280;63709;53.258;-8.814;2023-09-12T09:46:02;102110.69;;;18.10;100.00
64340;BME280;63709;53.258;-8.814;2023-09-12T09:48:28;102110.28;;;18.15;100.00
64340;BME280;63709;53.258;-8.814;2023-09-12T09:50:53;102109.38;;;18.26;100.00
64340;BME280;63709;53.258;-8.814;2023-09-12T09:53:27;102101.25;;;18.26;100.00
64340;BME280;63709;53.258;-8.814;2023-09-12T09:56:07;102105.84;;;18.35;100.00
64340;BME280;63709;53.258;-8.814;2023-09-12T09:58:33;102101.34;;;18.45;100.00
64340;BME280;63709;53.258;-8.814;2023-09-12T10:00:58;102101.34;;;18.45;100.00
64340;BME280;63709;53.258;-8.814;2023-09-12T10:03:24;102106.06;;;18.43;100.00
64340;BME280;63709;53.258;-8.814;2023-09-12T10:05:50;102099.06;;;18.41;100.00
64340;BME280;63709;53.258;-8.814;2023-09-12T10:08:16;102106.22;;;18.51;100.00
64340;BME280;63709;53.258;-8.814;2023-09-12T10:10:42;102106.34;;;18.50;100.00
64340;BME280;63709;53.258;-8.814;2023-09-12T10:13:07;102101.69;;;18.52;100.00
64340;BME280;63709;53.258;-8.814;2023-09-12T10:15:34;102103.53;;;18.51;100.00
64340;BME280;63709;53.258;-8.814;2023-09-12T10:18:07;102098.56;;;18.56;100.00
64340;BME280;63709;53.258;-8.814;2023-09-12T10:20:35;102107.94;;;18.52;100.00
64340;BME280;63709;53.258;-8.814;2023-09-12T10:23:05;102109.25;;;18.58;100.00
64340;BME280;63709;53.258;-8.814;2023-09-12T10:25:36;102103.22;;;18.24;100.00
64340;BME280;63709;53.258;-8.814;2023-09-12T10:28:03;102102.19;;;18.46;100.00
64340;BME280;63709;53.258;-8.814;2023-09-12T10:30:29;102099.66;;;18.44;100.00
64340;BME280;63709;53.258;-8.814;2023-09-12T10:32:54;102114.34;;;18.51;100.00
64340;BME280;63709;53.258;-8.814;2023-09-12T10:35:20;102118.66;;;18.63;100.00
64340;BME280;63709;53.258;-8.814;2023-09-12T10:37:46;102117.38;;;18.68;100.00
64340;BME280;63709;53.258;-8.814;2023-09-12T10:40:13;102126.50;;;18.88;100.00
64340;BME280;63709;53.258;-8.814;2023-09-12T10:42:40;102121.41;;;19.04;100.00
64340;BME280;63709;53.258;-8.814;2023-09-12T10:45:06;102125.53;;;19.08;100.00
64340;BME280;63709;53.258;-8.814;2023-09-12T10:47:34;102130.63;;;19.01;100.00
64340;BME280;63709;53.258;-8.814;2023-09-12T10:49:59;102123.94;;;19.05;100.00
64340;BME280;63709;53.258;-8.814;2023-09-12T10:52:28;102124.84;;;19.06;100.00
64340;BME280;63709;53.258;-8.814;2023-09-12T10:54:53;102128.03;;;18.90;100.00
64340;BME280;63709;53.258;-8.814;2023-09-12T10:57:19;102125.75;;;18.85;100.00
64340;BME280;63709;53.258;-8.814;2023-09-12T11:02:36;102131.81;;;19.08;100.00
64340;BME280;63709;53.258;-8.814;2023-09-12T11:05:05;102127.28;;;19.19;100.00
64340;BME280;63709;53.258;-8.814;2023-09-12T11:10:24;102130.72;;;19.21;100.00
64340;BME280;63709;53.258;-8.814;2023-09-12T11:12:50;102126.38;;;18.99;100.00
64340;BME280;63709;53.258;-8.814;2023-09-12T11:15:16;102129.69;;;19.12;100.00
64340;BME280;63709;53.258;-8.814;2023-09-12T11:17:45;102125.16;;;19.22;100.00
64340;BME280;63709;53.258;-8.814;2023-09-12T11:20:11;102123.78;;;18.97;100.00
64340;BME280;63709;53.258;-8.814;2023-09-12T11:22:38;102125.56;;;19.18;100.00
64340;BME280;63709;53.258;-8.814;2023-09-12T11:25:22;102128.97;;;19.20;100.00
64340;BME280;63709;53.258;-8.814;2023-09-12T11:30:26;102123.94;;;19.05;100.00
64340;BME280;63709;53.258;-8.814;2023-09-12T11:32:52;102122.41;;;19.03;100.00
64340;BME280;63709;53.258;-8.814;2023-09-12T11:35:24;102131.53;;;19.12;100.00
64340;BME280;63709;53.258;-8.814;2023-09-12T11:37:51;102124.41;;;19.10;100.00
64340;BME280;63709;53.258;-8.814;2023-09-12T11:40:17;102128.00;;;19.21;100.00
64340;BME280;63709;53.258;-8.814;2023-09-12T11:42:43;102126.56;;;19.26;100.00
64340;BME280;63709;53.258;-8.814;2023-09-12T11:45:10;102126.16;;;19.31;100.00
64340;BME280;63709;53.258;-8.814;2023-09-12T11:47:41;102124.59;;;19.38;100.00
64340;BME280;63709;53.258;-8.814;2023-09-12T11:50:07;102120.47;;;19.34;100.00
64340;BME280;63709;53.258;-8.814;2023-09-12T11:52:35;102129.19;;;19.47;100.00
64340;BME280;63709;53.258;-8.814;2023-09-12T11:55:01;102119.34;;;19.56;100.00
64340;BME280;63709;53.258;-8.814;2023-09-12T11:57:26;102127.19;;;19.59;100.00
64340;BME280;63709;53.258;-8.814;2023-09-12T11:59:51;102136.88;;;19.62;100.00
64340;BME280;63709;53.258;-8.814;2023-09-12T12:02:17;102136.78;;;19.63;100.00
64340;BME280;63709;53.258;-8.814;2023-09-12T12:04:43;102128.59;;;19.53;100.00
64340;BME280;63709;53.258;-8.814;2023-09-12T12:07:09;102127.88;;;19.32;100.00
64340;BME280;63709;53.258;-8.814;2023-09-12T12:09:35;102135.56;;;19.37;100.00
64340;BME280;63709;53.258;-8.814;2023-09-12T12:12:04;102129.44;;;19.25;96.79
64340;BME280;63709;53.258;-8.814;2023-09-12T12:14:29;102128.75;;;19.52;100.00
64340;BME280;63709;53.258;-8.814;2023-09-12T12:17:04;102125.88;;;19.53;100.00
64340;BME280;63709;53.258;-8.814;2023-09-12T12:19:33;102121.38;;;19.64;100.00
64340;BME280;63709;53.258;-8.814;2023-09-12T12:21:58;102119.06;;;19.59;100.00
64340;BME280;63709;53.258;-8.814;2023-09-12T12:24:24;102120.81;;;19.70;100.00
64340;BME280;63709;53.258;-8.814;2023-09-12T12:26:49;102121.50;;;19.72;100.00
64340;BME280;63709;53.258;-8.814;2023-09-12T12:29:14;102122.59;;;19.30;88.19
64340;BME280;63709;53.258;-8.814;2023-09-12T12:31:40;102120.34;;;19.65;94.97
64340;BME280;63709;53.258;-8.814;2023-09-12T12:34:05;102120.75;;;19.60;95.93
64340;BME280;63709;53.258;-8.814;2023-09-12T12:36:31;102122.47;;;19.61;93.73
64340;BME280;63709;53.258;-8.814;2023-09-12T12:38:56;102117.34;;;19.87;99.74